createdAt,value
2023-01-31T00:01:40.072Z,2.33
2023-01-31T00:04:09.658Z,2.26
2023-01-31T00:06:40.234Z,2.15
2023-01-31T00:09:09.093Z,2.17
2023-01-31T00:11:36.305Z,2.15
2023-01-31T00:14:04.877Z,2.09
2023-01-31T00:16:31.998Z,2.05
2023-01-31T00:18:58.712Z,1.98
2023-01-31T00:21:29.943Z,2.03
2023-01-31T00:23:58.116Z,2.04
2023-01-31T00:26:30.556Z,2.11
2023-01-31T00:28:58.431Z,2.27
2023-01-31T00:31:27.591Z,2.41
2023-01-31T00:33:55.850Z,2.46
2023-01-31T00:36:25.626Z,2.52
2023-01-31T00:38:55.467Z,2.57
2023-01-31T00:41:23.678Z,2.64
2023-01-31T00:43:51.148Z,2.75
2023-01-31T00:46:20.443Z,2.91
2023-01-31T00:48:47.290Z,3.00
2023-01-31T00:51:13.909Z,3.03
2023-01-31T00:53:40.567Z,3.05
2023-01-31T00:56:10.606Z,3.06
2023-01-31T00:58:39.932Z,3.00
2023-01-31T01:01:17.179Z,2.94
2023-01-31T01:03:44.873Z,2.93
2023-01-31T01:06:12.299Z,2.94
2023-01-31T01:08:40.508Z,3.02
2023-01-31T01:11:09.735Z,3.01
2023-01-31T01:13:37.384Z,3.03
2023-01-31T01:16:12.727Z,3.03
2023-01-31T01:18:40.074Z,3.01
2023-01-31T01:21:12.485Z,2.99
2023-01-31T01:23:40.869Z,2.91
2023-01-31T01:26:14.867Z,2.87
2023-01-31T01:28:41.515Z,2.89
2023-01-31T01:31:10.628Z,2.89
2023-01-31T01:33:37.315Z,2.98
2023-01-31T01:36:06.402Z,2.97
2023-01-31T01:38:36.492Z,2.99
2023-01-31T01:41:05.000Z,2.93
2023-01-31T01:43:55.552Z,2.93
2023-01-31T01:46:31.817Z,2.92
2023-01-31T01:49:06.570Z,2.87
2023-01-31T01:51:34.020Z,2.92
2023-01-31T01:54:04.943Z,2.88
2023-01-31T01:56:38.916Z,2.89
2023-01-31T01:59:09.058Z,2.93
2023-01-31T02:01:38.269Z,2.96
2023-01-31T02:04:07.631Z,2.93
2023-01-31T02:06:34.624Z,2.94
2023-01-31T02:09:04.052Z,2.89
2023-01-31T02:11:32.282Z,2.88
2023-01-31T02:14:10.857Z,2.97
2023-01-31T02:16:37.526Z,2.92
2023-01-31T02:19:08.858Z,2.86
2023-01-31T02:22:02.779Z,2.90
2023-01-31T02:24:51.999Z,2.87
2023-01-31T02:27:34.357Z,2.93
2023-01-31T02:30:15.407Z,2.86
2023-01-31T02:32:54.030Z,2.88
2023-01-31T02:35:42.322Z,2.95
2023-01-31T02:38:25.429Z,2.96
2023-01-31T02:41:06.081Z,2.93
2023-01-31T02:44:16.987Z,2.90
2023-01-31T02:46:57.698Z,2.91
2023-01-31T02:49:36.915Z,2.91
2023-01-31T02:52:18.743Z,2.98
2023-01-31T02:55:19.112Z,2.95
2023-01-31T02:57:49.267Z,2.94
2023-01-31T03:00:17.459Z,2.94
2023-01-31T03:02:44.385Z,2.92
2023-01-31T03:05:15.630Z,3.00
2023-01-31T03:07:47.971Z,2.97
2023-01-31T03:10:37.179Z,3.03
2023-01-31T03:13:26.364Z,3.06
2023-01-31T03:16:25.629Z,3.02
2023-01-31T03:18:52.183Z,2.99
2023-01-31T03:21:28.540Z,2.98
2023-01-31T03:23:57.393Z,2.97
2023-01-31T03:26:26.038Z,2.90
2023-01-31T03:28:57.257Z,2.89
2023-01-31T03:31:29.695Z,2.88
2023-01-31T03:34:02.085Z,2.92
2023-01-31T03:36:56.003Z,2.93
2023-01-31T03:39:37.868Z,2.92
2023-01-31T03:42:13.508Z,2.92
2023-01-31T03:44:43.107Z,2.94
2023-01-31T03:47:33.197Z,2.91
2023-01-31T03:50:06.556Z,2.88
2023-01-31T03:52:38.467Z,2.86
2023-01-31T03:55:17.105Z,2.80
2023-01-31T03:57:49.004Z,2.76
2023-01-31T04:00:19.021Z,2.70
2023-01-31T04:02:52.767Z,2.66
2023-01-31T04:05:24.885Z,2.58
2023-01-31T04:07:51.507Z,2.51
2023-01-31T04:10:19.750Z,2.48
2023-01-31T04:12:47.084Z,2.50
2023-01-31T04:15:14.334Z,2.47
2023-01-31T04:17:40.865Z,2.47
2023-01-31T04:20:09.669Z,2.47
2023-01-31T04:22:36.233Z,2.45
2023-01-31T04:25:03.503Z,2.47
2023-01-31T04:27:30.026Z,2.47
2023-01-31T04:29:56.619Z,2.50
2023-01-31T04:32:25.925Z,2.52
2023-01-31T04:34:52.465Z,2.55
2023-01-31T04:37:19.023Z,2.54
2023-01-31T04:39:45.542Z,2.51
2023-01-31T04:42:12.251Z,2.50
2023-01-31T04:44:39.198Z,2.48
2023-01-31T04:47:05.788Z,2.50
2023-01-31T04:49:32.993Z,2.49
2023-01-31T04:51:59.628Z,2.44
2023-01-31T04:54:26.261Z,2.47
2023-01-31T04:56:52.854Z,2.50
2023-01-31T04:59:19.407Z,2.58
2023-01-31T05:01:45.936Z,2.66
2023-01-31T05:04:12.773Z,2.64
2023-01-31T05:06:39.356Z,2.69
2023-01-31T05:09:06.669Z,2.69
2023-01-31T05:11:33.376Z,2.61
2023-01-31T05:13:59.964Z,2.55
2023-01-31T05:16:27.560Z,2.55
2023-01-31T05:18:54.239Z,2.48
2023-01-31T05:21:20.880Z,2.43
2023-01-31T05:23:47.802Z,2.40
2023-01-31T05:26:14.427Z,2.35
2023-01-31T05:28:41.925Z,2.36
2023-01-31T05:31:09.131Z,2.41
2023-01-31T05:33:36.296Z,2.40
2023-01-31T05:36:03.847Z,2.40
2023-01-31T05:38:31.253Z,2.32
2023-01-31T05:40:57.884Z,2.30
2023-01-31T05:43:24.407Z,2.26
2023-01-31T05:45:51.034Z,2.25
2023-01-31T05:48:17.601Z,2.23
2023-01-31T05:50:44.222Z,2.18
2023-01-31T05:53:11.222Z,2.19
2023-01-31T05:55:38.138Z,2.22
2023-01-31T05:58:04.730Z,2.18
2023-01-31T06:00:31.346Z,2.17
2023-01-31T06:02:59.717Z,2.16
2023-01-31T06:05:27.213Z,2.13
2023-01-31T06:07:53.948Z,2.11
2023-01-31T06:10:21.226Z,2.14
2023-01-31T06:12:48.151Z,2.09
2023-01-31T06:15:14.802Z,2.11
2023-01-31T06:17:41.365Z,2.16
2023-01-31T06:20:08.620Z,2.13
2023-01-31T06:22:35.176Z,2.18
2023-01-31T06:25:01.868Z,2.11
2023-01-31T06:27:32.149Z,2.07
2023-01-31T06:30:00.798Z,2.09
2023-01-31T06:32:27.401Z,2.09
2023-01-31T06:34:54.023Z,2.09
2023-01-31T06:37:20.643Z,2.23
2023-01-31T06:39:47.186Z,2.36
2023-01-31T06:42:13.824Z,2.28
2023-01-31T06:44:40.451Z,2.29
2023-01-31T06:47:07.056Z,2.34
2023-01-31T06:49:33.609Z,2.27
2023-01-31T06:52:00.170Z,2.25
2023-01-31T06:54:26.814Z,2.28
2023-01-31T06:56:53.798Z,2.28
2023-01-31T06:59:20.444Z,2.25
2023-01-31T07:01:47.070Z,2.21
2023-01-31T07:04:13.900Z,2.21
2023-01-31T07:06:40.667Z,2.24
2023-01-31T07:09:07.684Z,2.27
2023-01-31T07:11:34.363Z,2.34
2023-01-31T07:14:00.925Z,2.39
2023-01-31T07:16:27.585Z,2.46
2023-01-31T07:18:55.124Z,2.53
2023-01-31T07:21:23.273Z,2.55
2023-01-31T07:23:51.019Z,2.61
2023-01-31T07:26:18.295Z,2.62
2023-01-31T07:28:44.888Z,2.66
2023-01-31T07:31:13.785Z,2.69
2023-01-31T07:33:41.192Z,2.73
2023-01-31T07:36:08.774Z,2.79
2023-01-31T07:38:35.550Z,2.81
2023-01-31T07:41:04.170Z,2.85
2023-01-31T07:43:32.599Z,2.90
2023-01-31T07:45:59.491Z,2.93
2023-01-31T07:48:26.216Z,2.97
2023-01-31T07:50:59.448Z,3.06
2023-01-31T07:53:28.672Z,3.17
2023-01-31T07:55:57.429Z,3.26
2023-01-31T07:58:24.082Z,3.35
2023-01-31T08:01:12.114Z,3.45
2023-01-31T08:03:38.668Z,3.62
2023-01-31T08:06:13.148Z,3.78
2023-01-31T08:08:42.274Z,3.82
2023-01-31T08:11:08.841Z,3.92
2023-01-31T08:13:35.868Z,4.01
2023-01-31T08:16:04.117Z,4.05
2023-01-31T08:18:31.054Z,4.06
2023-01-31T08:20:58.344Z,4.10
2023-01-31T08:23:25.117Z,4.22
2023-01-31T08:25:51.680Z,4.25
2023-01-31T08:28:18.244Z,4.35
2023-01-31T08:30:52.916Z,4.41
2023-01-31T08:33:26.168Z,4.48
2023-01-31T08:35:53.275Z,4.63
2023-01-31T08:38:20.083Z,4.74
2023-01-31T08:40:46.916Z,4.92
2023-01-31T08:43:13.924Z,5.07
2023-01-31T08:45:40.930Z,5.32
2023-01-31T08:48:07.687Z,5.59
2023-01-31T08:50:35.000Z,5.90
2023-01-31T08:53:03.791Z,6.17
2023-01-31T08:55:31.861Z,6.34
2023-01-31T08:58:00.365Z,6.78
2023-01-31T09:00:28.072Z,7.15
2023-01-31T09:02:56.863Z,7.46
2023-01-31T09:05:25.167Z,7.76
2023-01-31T09:07:51.811Z,8.14
2023-01-31T09:10:19.603Z,8.46
2023-01-31T09:12:46.702Z,8.66
2023-01-31T09:15:13.383Z,9.00
2023-01-31T09:17:40.913Z,9.43
2023-01-31T09:20:10.201Z,10.06
2023-01-31T09:22:37.287Z,10.71
2023-01-31T09:25:04.874Z,10.95
2023-01-31T09:27:32.189Z,11.35
2023-01-31T09:29:58.855Z,11.63
2023-01-31T09:32:25.538Z,11.97
2023-01-31T09:34:52.200Z,12.57
2023-01-31T09:37:18.876Z,12.75
2023-01-31T09:39:45.465Z,13.16
2023-01-31T09:42:36.806Z,13.30
2023-01-31T09:45:11.887Z,13.41
2023-01-31T09:47:46.807Z,13.95
2023-01-31T09:50:46.251Z,14.75
2023-01-31T09:53:15.104Z,14.20
2023-01-31T09:55:55.097Z,14.71
2023-01-31T09:58:49.616Z,14.04
2023-01-31T10:01:24.323Z,12.82
2023-01-31T10:04:29.770Z,11.89
2023-01-31T10:06:56.248Z,10.87
2023-01-31T10:09:45.191Z,11.27
2023-01-31T10:12:23.556Z,12.38
2023-01-31T10:14:55.970Z,13.18
2023-01-31T10:17:38.529Z,14.12
2023-01-31T10:20:23.159Z,15.19
2023-01-31T10:22:57.594Z,14.94
2023-01-31T10:25:32.403Z,15.41
2023-01-31T10:28:09.818Z,16.12
2023-01-31T10:31:08.611Z,16.31
2023-01-31T10:33:52.846Z,15.71
2023-01-31T10:36:29.436Z,14.69
2023-01-31T10:39:05.283Z,14.90
2023-01-31T10:41:41.176Z,15.52
2023-01-31T10:44:17.934Z,16.28
2023-01-31T10:46:47.609Z,15.79
2023-01-31T10:49:15.433Z,15.02
2023-01-31T10:52:17.069Z,13.58
2023-01-31T10:55:15.942Z,12.66
2023-01-31T10:57:43.108Z,12.32
2023-01-31T11:00:23.369Z,12.67
2023-01-31T11:02:50.133Z,12.56
2023-01-31T11:05:21.008Z,13.36
2023-01-31T11:07:48.623Z,14.33
2023-01-31T11:10:50.778Z,15.03
2023-01-31T11:13:23.509Z,15.34
2023-01-31T11:15:53.770Z,16.07
2023-01-31T11:18:34.598Z,16.62
2023-01-31T11:21:03.613Z,16.68
2023-01-31T11:23:34.025Z,17.01
2023-01-31T11:26:01.077Z,16.26
2023-01-31T11:28:35.797Z,16.46
2023-01-31T11:31:05.340Z,16.32
2023-01-31T11:33:44.478Z,14.46
2023-01-31T11:36:23.905Z,13.37
2023-01-31T11:38:51.380Z,13.18
2023-01-31T11:41:26.593Z,14.39
2023-01-31T11:44:23.184Z,15.83
2023-01-31T11:46:56.876Z,16.55
2023-01-31T11:49:32.651Z,17.48
2023-01-31T11:52:12.925Z,18.22
2023-01-31T11:54:43.979Z,18.32
2023-01-31T11:57:26.083Z,18.33
2023-01-31T11:59:57.384Z,19.23
2023-01-31T12:02:39.973Z,19.51
2023-01-31T12:05:16.095Z,18.64
2023-01-31T12:07:53.351Z,18.40
2023-01-31T12:10:34.467Z,17.52
2023-01-31T12:13:18.854Z,17.22
2023-01-31T12:16:01.007Z,17.70
2023-01-31T12:18:46.399Z,18.35
2023-01-31T12:21:24.845Z,17.54
2023-01-31T12:24:03.084Z,17.69
2023-01-31T12:26:43.831Z,17.52
2023-01-31T12:29:25.772Z,16.85
2023-01-31T12:32:24.718Z,16.13
2023-01-31T12:35:10.258Z,16.01
2023-01-31T12:37:53.425Z,15.49
2023-01-31T12:40:40.531Z,15.23
2023-01-31T12:43:41.069Z,15.04
2023-01-31T12:46:13.513Z,14.28
2023-01-31T12:49:06.992Z,13.79
2023-01-31T12:51:33.536Z,13.72
2023-01-31T12:54:11.898Z,13.06
2023-01-31T12:57:03.168Z,12.44
2023-01-31T12:59:56.756Z,12.14
2023-01-31T13:02:43.943Z,12.09
2023-01-31T13:05:22.715Z,11.62
2023-01-31T13:07:58.111Z,10.72
2023-01-31T13:10:35.549Z,10.46
2023-01-31T13:13:03.236Z,10.12
2023-01-31T13:15:50.964Z,9.79
2023-01-31T13:18:17.948Z,9.53
2023-01-31T13:20:50.204Z,9.82
2023-01-31T13:23:42.813Z,10.28
2023-01-31T13:26:18.999Z,10.94
2023-01-31T13:28:54.805Z,10.87
2023-01-31T13:31:27.133Z,10.66
2023-01-31T13:34:09.060Z,10.33
2023-01-31T13:36:59.829Z,9.92
2023-01-31T13:39:34.765Z,9.60
2023-01-31T13:42:01.605Z,9.22
2023-01-31T13:44:28.170Z,8.90
2023-01-31T13:47:16.768Z,8.84
2023-01-31T13:49:55.383Z,8.88
2023-01-31T13:52:31.942Z,8.44
2023-01-31T13:55:21.617Z,8.13
2023-01-31T13:58:03.715Z,8.04
2023-01-31T14:00:41.067Z,8.04
2023-01-31T14:03:14.681Z,7.75
2023-01-31T14:05:41.218Z,7.71
2023-01-31T14:08:26.356Z,7.71
2023-01-31T14:11:27.367Z,7.58
2023-01-31T14:14:08.729Z,7.38
2023-01-31T14:16:37.303Z,7.33
2023-01-31T14:19:21.746Z,6.94
2023-01-31T14:22:03.255Z,6.83
2023-01-31T14:24:53.132Z,6.69
2023-01-31T14:27:39.495Z,6.39
2023-01-31T14:30:06.089Z,6.48
2023-01-31T14:32:38.566Z,6.43
2023-01-31T14:35:47.831Z,6.36
2023-01-31T14:38:23.384Z,6.12
2023-01-31T14:41:19.187Z,6.16
2023-01-31T14:44:29.345Z,6.08
2023-01-31T14:47:30.866Z,5.98
2023-01-31T14:50:11.565Z,5.99
2023-01-31T14:52:55.925Z,6.05
2023-01-31T14:55:28.105Z,6.09
2023-01-31T14:58:17.892Z,6.09
2023-01-31T15:00:55.206Z,6.06
2023-01-31T15:04:01.141Z,6.00
2023-01-31T15:06:40.658Z,5.95
2023-01-31T15:09:18.306Z,5.84
2023-01-31T15:11:47.319Z,5.58
2023-01-31T15:14:36.500Z,5.55
2023-01-31T15:17:09.886Z,5.49
2023-01-31T15:19:46.826Z,5.38
2023-01-31T15:22:17.076Z,5.46
2023-01-31T15:24:51.471Z,5.39
2023-01-31T15:27:24.719Z,5.40
2023-01-31T15:30:15.839Z,5.41
2023-01-31T15:33:02.906Z,5.28
2023-01-31T15:35:37.221Z,5.28
2023-01-31T15:38:25.012Z,5.23
2023-01-31T15:41:22.900Z,5.06
2023-01-31T15:43:55.367Z,5.10
2023-01-31T15:46:29.739Z,5.05
2023-01-31T15:48:57.591Z,4.89
2023-01-31T15:51:24.964Z,4.81
2023-01-31T15:54:06.302Z,4.78
2023-01-31T15:56:37.375Z,4.79
2023-01-31T15:59:12.728Z,4.66
2023-01-31T16:01:39.786Z,4.60
2023-01-31T16:04:06.584Z,4.57
2023-01-31T16:06:36.097Z,4.53
2023-01-31T16:09:05.111Z,4.43
2023-01-31T16:11:34.202Z,4.34
2023-01-31T16:14:07.647Z,4.36
2023-01-31T16:16:36.114Z,4.23
2023-01-31T16:19:03.825Z,4.16
2023-01-31T16:21:48.493Z,4.08
2023-01-31T16:24:17.437Z,3.95
2023-01-31T16:27:01.760Z,3.88
2023-01-31T16:29:47.307Z,3.78
2023-01-31T16:32:37.001Z,3.72
2023-01-31T16:35:25.023Z,3.70
2023-01-31T16:38:07.960Z,3.61
2023-01-31T16:40:45.585Z,3.60
2023-01-31T16:43:29.961Z,3.52
2023-01-31T16:46:03.215Z,3.49
2023-01-31T16:48:32.912Z,3.42
2023-01-31T16:51:20.564Z,3.43
2023-01-31T16:54:09.874Z,3.41
2023-01-31T16:56:36.506Z,3.39
2023-01-31T16:59:03.084Z,3.41
2023-01-31T17:01:33.695Z,3.38
2023-01-31T17:04:00.240Z,3.33
2023-01-31T17:06:27.276Z,3.35
2023-01-31T17:08:54.328Z,3.34
2023-01-31T17:11:40.923Z,3.32
2023-01-31T17:14:08.242Z,3.38
2023-01-31T17:16:34.831Z,3.38
2023-01-31T17:19:01.480Z,3.42
2023-01-31T17:21:29.178Z,3.38
2023-01-31T17:23:55.746Z,3.35
2023-01-31T17:26:23.547Z,3.27
2023-01-31T17:29:00.817Z,3.29
2023-01-31T17:31:29.598Z,3.28
2023-01-31T17:33:56.611Z,3.24
2023-01-31T17:36:23.495Z,3.21
2023-01-31T17:38:51.830Z,3.21
2023-01-31T17:41:20.688Z,3.20
2023-01-31T17:43:47.312Z,3.17
2023-01-31T17:46:15.788Z,3.14
2023-01-31T17:48:42.654Z,3.14
2023-01-31T17:51:09.470Z,3.18
2023-01-31T17:53:47.725Z,3.19
2023-01-31T17:56:16.547Z,3.19
2023-01-31T17:58:43.112Z,3.16
2023-01-31T18:01:10.861Z,3.15
2023-01-31T18:03:37.655Z,3.17
2023-01-31T18:06:06.216Z,3.16
2023-01-31T18:08:33.048Z,3.15
2023-01-31T18:11:15.004Z,3.08
2023-01-31T18:13:43.152Z,3.05
2023-01-31T18:16:13.153Z,3.04
2023-01-31T18:18:40.625Z,3.00
2023-01-31T18:21:16.597Z,3.01
2023-01-31T18:23:43.637Z,3.00
2023-01-31T18:26:11.365Z,3.00
2023-01-31T18:28:38.049Z,3.00
2023-01-31T18:31:10.469Z,3.01
2023-01-31T18:33:37.642Z,3.03
2023-01-31T18:36:06.043Z,2.99
2023-01-31T18:38:32.919Z,2.97
2023-01-31T18:41:00.303Z,2.97
2023-01-31T18:43:29.730Z,2.93
2023-01-31T18:45:56.362Z,2.92
2023-01-31T18:48:22.975Z,2.91
2023-01-31T18:50:49.635Z,2.90
2023-01-31T18:53:16.207Z,2.91
2023-01-31T18:55:42.764Z,2.86
2023-01-31T18:58:09.379Z,2.85
2023-01-31T19:00:36.022Z,2.88
2023-01-31T19:03:02.654Z,2.88
2023-01-31T19:05:29.318Z,2.90
2023-01-31T19:07:57.027Z,2.94
2023-01-31T19:10:23.655Z,2.91
2023-01-31T19:12:50.188Z,2.92
2023-01-31T19:15:16.792Z,2.92
2023-01-31T19:17:43.351Z,2.94
2023-01-31T19:20:10.755Z,2.94
2023-01-31T19:22:37.336Z,2.98
2023-01-31T19:25:05.535Z,2.99
2023-01-31T19:27:32.135Z,2.97
2023-01-31T19:29:59.902Z,3.01
2023-01-31T19:32:29.097Z,3.05
2023-01-31T19:34:55.731Z,3.16
2023-01-31T19:37:22.315Z,3.25
2023-01-31T19:39:49.115Z,3.46
2023-01-31T19:42:15.704Z,3.67
2023-01-31T19:44:42.267Z,3.73
2023-01-31T19:47:08.886Z,3.75
2023-01-31T19:49:35.424Z,3.73
2023-01-31T19:52:02.108Z,3.76
2023-01-31T19:54:28.656Z,3.74
2023-01-31T19:56:55.250Z,3.72
2023-01-31T19:59:21.810Z,3.66
2023-01-31T20:01:48.413Z,3.61
2023-01-31T20:04:15.011Z,3.62
2023-01-31T20:06:41.720Z,3.63
2023-01-31T20:09:09.711Z,3.61
2023-01-31T20:11:37.689Z,3.64
2023-01-31T20:14:04.654Z,3.59
2023-01-31T20:16:31.414Z,3.56
2023-01-31T20:19:00.802Z,3.53
2023-01-31T20:21:27.648Z,3.49
2023-01-31T20:23:54.267Z,3.46
2023-01-31T20:26:22.818Z,3.39
2023-01-31T20:28:49.862Z,3.46
2023-01-31T20:31:17.580Z,3.37
2023-01-31T20:33:44.291Z,3.30
2023-01-31T20:36:11.607Z,3.20
2023-01-31T20:38:38.982Z,3.11
2023-01-31T20:41:08.503Z,3.02
2023-01-31T20:43:35.392Z,2.97
2023-01-31T20:46:10.638Z,2.94
2023-01-31T20:48:38.329Z,2.88
2023-01-31T20:51:06.226Z,2.81
2023-01-31T20:53:33.380Z,2.87
2023-01-31T20:56:05.767Z,2.81
2023-01-31T20:58:35.046Z,2.78
2023-01-31T21:01:05.425Z,2.69
2023-01-31T21:03:33.364Z,2.60
2023-01-31T21:06:00.792Z,2.55
2023-01-31T21:08:28.618Z,2.50
2023-01-31T21:10:57.463Z,2.48
2023-01-31T21:13:27.915Z,2.47
2023-01-31T21:15:56.813Z,2.49
2023-01-31T21:18:26.259Z,2.45
2023-01-31T21:20:52.849Z,2.45
2023-01-31T21:23:19.473Z,2.39
2023-01-31T21:25:46.064Z,2.35
2023-01-31T21:28:12.645Z,2.33
2023-01-31T21:30:39.291Z,2.23
2023-01-31T21:33:05.967Z,2.17
2023-01-31T21:35:32.675Z,2.18
2023-01-31T21:37:59.277Z,2.14
2023-01-31T21:40:25.954Z,2.08
2023-01-31T21:42:54.133Z,2.08
2023-01-31T21:45:39.777Z,2.08
2023-01-31T21:48:29.179Z,2.09
2023-01-31T21:50:56.850Z,2.17
2023-01-31T21:53:23.505Z,2.18
2023-01-31T21:55:50.114Z,2.18
2023-01-31T21:58:18.768Z,2.23
2023-01-31T22:00:45.403Z,2.28
2023-01-31T22:03:12.032Z,2.20
2023-01-31T22:05:38.683Z,2.18
2023-01-31T22:08:05.455Z,2.17
2023-01-31T22:10:32.310Z,2.20
2023-01-31T22:12:58.917Z,2.20
2023-01-31T22:15:25.545Z,2.24
2023-01-31T22:17:52.740Z,2.25
2023-01-31T22:20:19.622Z,2.27
2023-01-31T22:22:47.159Z,2.29
2023-01-31T22:25:13.935Z,2.28
2023-01-31T22:27:40.621Z,2.31
2023-01-31T22:30:16.237Z,2.32
2023-01-31T22:32:43.598Z,2.36
2023-01-31T22:35:10.492Z,2.35
2023-01-31T22:37:37.185Z,2.32
2023-01-31T22:40:04.110Z,2.31
2023-01-31T22:42:30.738Z,2.30
2023-01-31T22:44:57.259Z,2.33
2023-01-31T22:47:24.611Z,2.30
2023-01-31T22:49:51.418Z,2.33
2023-01-31T22:52:18.025Z,2.32
2023-01-31T22:54:44.613Z,2.31
2023-01-31T22:57:11.216Z,2.27
2023-01-31T22:59:37.791Z,2.32
2023-01-31T23:02:04.516Z,2.23
2023-01-31T23:04:31.127Z,2.24
2023-01-31T23:06:57.732Z,2.21
2023-01-31T23:09:24.410Z,2.20
2023-01-31T23:11:50.950Z,2.16
2023-01-31T23:14:17.548Z,2.12
2023-01-31T23:17:02.292Z,2.10
2023-01-31T23:19:28.939Z,2.09
2023-01-31T23:21:55.524Z,2.07
2023-01-31T23:24:22.162Z,2.10
2023-01-31T23:26:48.895Z,2.15
2023-01-31T23:29:15.635Z,2.13
2023-01-31T23:31:42.345Z,2.13
2023-01-31T23:34:08.994Z,2.17
2023-01-31T23:36:35.654Z,2.16
2023-01-31T23:39:02.295Z,2.18
2023-01-31T23:41:28.963Z,2.23
2023-01-31T23:43:55.601Z,2.23
2023-01-31T23:46:22.214Z,2.23
2023-01-31T23:48:48.823Z,2.30
2023-01-31T23:51:15.392Z,2.28
2023-01-31T23:53:41.972Z,2.30
2023-01-31T23:56:08.561Z,2.35
2023-01-31T23:58:35.142Z,2.42
